Time;durP1;ratioP1;P1;durP2;ratioP2;P2;SDS_P1;SDS_P2;PMS_P1;PMS_P2;Temp;Humidity;BMP_temperature;BMP_pressure;BME280_temperature;BME280_humidity;BME280_pressure;Samples;Min_cycle;Max_cycle;Signal;HPM_P1;HPM_P2
2022/02/06 00:01:06;;;;;;;9.63;2.28;;;7.60;99.90;;;;;;5116257;27;20096;-83
2022/02/06 00:03:32;;;;;;;9.68;2.55;;;7.10;99.90;;;;;;5109887;27;20051;-83
2022/02/06 00:05:57;;;;;;;2.28;1.58;;;7.10;99.90;;;;;;5105948;27;20148;-84
2022/02/06 00:08:23;;;;;;;4.95;2.20;;;7.30;99.90;;;;;;5097645;27;20031;-81
2022/02/06 00:10:49;;;;;;;8.48;2.75;;;7.30;99.90;;;;;;5127475;27;20043;-83
2022/02/06 00:13:15;;;;;;;9.25;2.83;;;7.30;99.90;;;;;;5095384;27;20046;-80
2022/02/06 00:15:43;;;;;;;7.25;2.70;;;7.20;99.90;;;;;;5106015;27;20466;-83
2022/02/06 00:18:12;;;;;;;7.70;2.53;;;7.40;99.90;;;;;;5126270;27;20043;-82
2022/02/06 00:20:48;;;;;;;7.88;2.50;;;7.20;99.90;;;;;;5099997;27;20046;-81
2022/02/06 00:23:17;;;;;;;6.32;2.28;;;7.10;99.90;;;;;;5101264;28;20063;-81
2022/02/06 00:31:03;;;;;;;12.55;3.35;;;7.20;99.90;;;;;;5099480;27;20047;-82
2022/02/06 00:41:25;;;;;;;10.98;3.30;;;7.30;99.90;;;;;;5120461;27;20136;-81
2022/02/06 00:43:51;;;;;;;4.15;2.50;;;7.60;99.90;;;;;;5111556;27;20040;-85
2022/02/06 00:46:18;;;;;;;14.82;3.85;;;7.60;99.90;;;;;;5106110;27;20045;-82
2022/02/06 00:48:51;;;;;;;10.48;2.97;;;7.30;99.90;;;;;;5114097;27;20125;-80
2022/02/06 00:51:29;;;;;;;8.85;1.92;;;7.50;99.90;;;;;;5109331;28;20047;-82
2022/02/06 00:53:55;;;;;;;6.95;2.38;;;7.30;99.90;;;;;;5094464;28;20122;-80
2022/02/06 00:56:20;;;;;;;8.07;1.95;;;7.20;99.90;;;;;;5112596;28;20118;-82
2022/02/06 00:58:46;;;;;;;4.57;2.13;;;7.10;99.90;;;;;;5117861;28;20050;-81
2022/02/06 01:01:12;;;;;;;11.55;2.65;;;7.50;99.90;;;;;;5104451;28;20046;-83
2022/02/06 01:03:38;;;;;;;10.73;3.20;;;7.20;99.90;;;;;;5111481;28;20039;-83
2022/02/06 01:06:04;;;;;;;3.45;2.05;;;7.30;99.90;;;;;;5104824;28;20048;-81
2022/02/06 01:08:30;;;;;;;8.35;1.75;;;7.60;99.90;;;;;;5114610;28;20046;-83
2022/02/06 01:10:56;;;;;;;8.73;2.47;;;7.30;99.90;;;;;;5107501;28;20047;-83
2022/02/06 01:15:56;;;;;;;5.65;2.33;;;7.30;99.90;;;;;;5113271;28;20096;-84
2022/02/06 01:18:28;;;;;;;7.72;2.45;;;7.70;99.90;;;;;;5111154;28;20063;-81
2022/02/06 01:21:02;;;;;;;5.70;2.40;;;6.60;99.90;;;;;;5114780;28;21481;-81
2022/02/06 01:23:34;;;;;;;9.07;2.72;;;7.70;99.90;;;;;;5113844;28;20042;-78
2022/02/06 01:26:08;;;;;;;8.55;2.10;;;7.30;99.90;;;;;;5111034;28;20077;-80
2022/02/06 01:28:39;;;;;;;7.97;2.47;;;7.30;99.90;;;;;;5094471;28;20069;-81
2022/02/06 01:33:37;;;;;;;5.72;3.05;;;7.30;99.90;;;;;;5119433;28;20103;-82
2022/02/06 01:36:11;;;;;;;4.15;2.22;;;7.70;99.90;;;;;;5109590;28;20136;-81
2022/02/06 01:41:22;;;;;;;16.48;2.90;;;7.40;99.90;;;;;;5116970;28;20048;-83
2022/02/06 01:44:11;;;;;;;14.02;3.28;;;7.70;99.90;;;;;;5121656;28;20039;-78
2022/02/06 01:57:06;;;;;;;4.63;1.67;;;7.70;99.90;;;;;;5116875;27;20074;-83
2022/02/06 02:03:07;;;;;;;2.03;1.55;;;7.40;99.90;;;;;;5116340;27;20040;-81
2022/02/06 02:19:22;;;;;;;13.23;2.90;;;7.30;99.90;;;;;;5110374;27;20047;-80
2022/02/06 02:43:50;;;;;;;6.70;2.63;;;7.60;99.90;;;;;;5117886;27;20134;-82
2022/02/06 02:46:10;;;;;;;6.53;2.33;;;7.70;99.90;;;;;;5105002;27;20122;-82
2022/02/06 02:48:38;;;;;;;4.43;2.20;;;7.70;99.90;;;;;;5117926;27;20040;-82
2022/02/06 02:51:06;;;;;;;5.18;1.83;;;7.60;99.90;;;;;;5119534;27;20048;-80
2022/02/06 02:53:49;;;;;;;4.43;1.98;;;7.50;99.90;;;;;;5099021;27;20061;-82
2022/02/06 03:01:35;;;;;;;3.00;1.05;;;7.60;99.90;;;;;;5106501;27;20079;-82
2022/02/06 03:03:52;;;;;;;11.10;2.75;;;7.80;99.90;;;;;;5124253;27;20054;-81
2022/02/06 03:06:18;;;;;;;6.22;2.60;;;7.80;99.90;;;;;;5121963;27;20115;-84
2022/02/06 03:08:46;;;;;;;11.43;3.05;;;7.70;99.90;;;;;;5107064;28;20127;-82
2022/02/06 03:11:12;;;;;;;8.82;2.67;;;7.70;99.90;;;;;;5112874;28;20052;-81
2022/02/06 03:16:24;;;;;;;10.60;2.42;;;7.50;99.90;;;;;;5126751;27;20051;-82
2022/02/06 03:18:59;;;;;;;7.38;2.67;;;7.90;99.90;;;;;;5114451;27;20038;-82
2022/02/06 03:21:28;;;;;;;6.90;2.47;;;7.50;99.90;;;;;;5126030;27;20066;-84
2022/02/06 03:23:59;;;;;;;3.38;1.85;;;7.80;99.90;;;;;;5111462;27;20039;-82
2022/02/06 03:26:25;;;;;;;7.60;2.60;;;7.70;99.90;;;;;;5117453;27;20039;-84
2022/02/06 03:28:54;;;;;;;8.80;3.38;;;8.30;99.90;;;;;;5118853;27;20048;-86
2022/02/06 03:31:20;;;;;;;7.65;2.00;;;7.80;99.90;;;;;;5092826;27;20047;-83
2022/02/06 03:33:48;;;;;;;6.15;2.00;;;8.30;99.90;;;;;;5113767;27;20054;-82
2022/02/06 03:36:14;;;;;;;11.40;3.55;;;7.60;99.90;;;;;;5120386;27;20055;-81
2022/02/06 03:38:40;;;;;;;;;;;7.60;99.90;;;;;;5115808;27;20484;-82
2022/02/06 03:41:09;;;;;;;9.90;3.75;;;8.40;99.90;;;;;;5105653;27;19919;-85
2022/02/06 03:46:40;;;;;;;6.03;3.00;;;7.90;99.90;;;;;;5108744;27;20038;-82
2022/02/06 03:49:15;;;;;;;8.77;2.05;;;7.50;99.90;;;;;;5102033;28;20047;-82
2022/02/06 03:51:41;;;;;;;9.68;2.75;;;8.10;99.90;;;;;;5119007;27;20054;-83
2022/02/06 03:54:10;;;;;;;19.33;2.65;;;8.00;99.90;;;;;;5110886;27;20109;-82
2022/02/06 03:56:36;;;;;;;10.32;3.15;;;7.50;99.90;;;;;;5118187;27;20361;-87
2022/02/06 03:59:04;;;;;;;;;;;8.00;99.90;;;;;;5118208;27;20047;-85
2022/02/06 04:01:30;;;;;;;12.80;3.33;;;8.00;99.90;;;;;;5118563;27;19919;-82
2022/02/06 04:03:56;;;;;;;11.00;2.40;;;7.70;99.90;;;;;;5103813;28;20047;-82
2022/02/06 04:06:24;;;;;;;3.00;1.60;;;7.70;99.90;;;;;;5120664;27;20438;-84
2022/02/06 04:08:50;;;;;;;1.83;1.08;;;7.60;99.90;;;;;;5098542;28;20036;-83
2022/02/06 04:11:21;;;;;;;11.82;2.47;;;7.70;99.90;;;;;;5111795;28;20052;-83
2022/02/06 04:13:56;;;;;;;8.77;2.58;;;7.80;99.90;;;;;;5112103;28;20043;-83
2022/02/06 04:16:37;;;;;;;9.18;3.28;;;7.80;99.90;;;;;;5114640;27;20096;-82
2022/02/06 04:19:16;;;;;;;8.30;1.70;;;7.80;99.90;;;;;;5115362;27;20096;-83
2022/02/06 04:21:41;;;;;;;7.82;2.53;;;8.00;99.90;;;;;;5114461;27;20043;-84
2022/02/06 04:24:07;;;;;;;17.88;2.67;;;7.20;99.90;;;;;;5112009;28;20522;-84
2022/02/06 04:26:33;;;;;;;6.57;2.15;;;7.60;99.90;;;;;;5090763;27;20086;-85
2022/02/06 04:28:58;;;;;;;4.53;2.35;;;7.60;99.90;;;;;;5126496;27;20040;-85
2022/02/06 04:31:24;;;;;;;8.93;2.95;;;7.80;99.90;;;;;;5119108;27;20067;-82
2022/02/06 04:33:51;;;;;;;6.82;3.13;;;7.40;99.90;;;;;;5087072;28;20089;-84
2022/02/06 04:36:18;;;;;;;6.75;1.95;;;7.60;99.90;;;;;;5088254;28;20118;-84
2022/02/06 04:39:07;;;;;;;6.82;2.33;;;7.80;99.90;;;;;;5116587;28;20084;-83
2022/02/06 04:41:51;;;;;;;7.72;2.28;;;7.30;99.90;;;;;;5092190;28;20067;-85
2022/02/06 04:44:42;;;;;;;7.13;2.30;;;7.60;99.90;;;;;;5106660;27;20507;-87
2022/02/06 05:19:46;;;;;;;6.38;2.20;;;7.60;99.90;;;;;;5113293;28;20079;-85
2022/02/06 05:27:30;;;;;;;9.43;2.35;;;7.80;99.90;;;;;;5116074;27;20055;-82
2022/02/06 05:30:12;;;;;;;3.90;1.73;;;8.20;99.90;;;;;;5130101;27;20484;-83
2022/02/06 05:32:47;;;;;;;2.08;1.58;;;7.70;99.90;;;;;;5102050;28;20031;-84
2022/02/06 05:35:12;;;;;;;12.93;2.10;;;8.00;99.90;;;;;;5122664;27;20043;-79
2022/02/06 05:37:38;;;;;;;6.65;2.40;;;7.80;99.90;;;;;;5115400;27;20039;-86
2022/02/06 05:40:04;;;;;;;6.82;2.30;;;7.70;99.90;;;;;;5082554;28;20135;-83
2022/02/06 05:42:30;;;;;;;9.32;2.53;;;7.70;99.90;;;;;;5116842;27;20100;-90
2022/02/06 05:44:56;;;;;;;6.22;1.60;;;7.60;99.90;;;;;;5120839;27;20038;-86
2022/02/06 05:47:23;;;;;;;4.18;1.45;;;7.60;99.90;;;;;;5083622;28;20119;-82
2022/02/06 05:49:50;;;;;;;7.90;2.03;;;7.80;99.90;;;;;;5106781;28;20047;-85
2022/02/06 05:52:15;;;;;;;;;;;8.10;99.90;;;;;;5119881;28;20039;-85
2022/02/06 05:54:41;;;;;;;9.65;2.78;;;7.70;99.90;;;;;;5114545;28;20371;-86
2022/02/06 05:57:07;;;;;;;5.30;1.60;;;7.70;99.90;;;;;;5115568;27;20545;-84
2022/02/06 05:59:32;;;;;;;7.68;1.90;;;7.70;99.90;;;;;;5112307;27;20035;-82
2022/02/06 06:01:58;;;;;;;7.90;2.10;;;7.70;99.90;;;;;;5121573;27;20058;-87
2022/02/06 06:04:24;;;;;;;4.75;2.25;;;7.80;99.90;;;;;;5121686;27;20036;-82
2022/02/06 06:06:50;;;;;;;12.57;1.98;;;7.70;99.90;;;;;;5096916;28;20039;-86
2022/02/06 06:09:16;;;;;;;3.80;1.52;;;7.70;99.90;;;;;;5100724;27;20040;-85
2022/02/06 06:11:41;;;;;;;;;;;7.70;99.90;;;;;;5124656;27;20169;-81
2022/02/06 06:14:07;;;;;;;4.38;2.28;;;8.00;99.90;;;;;;5114183;27;19998;-83
2022/02/06 06:16:34;;;;;;;8.77;2.53;;;7.70;99.90;;;;;;5113524;28;20370;-83
2022/02/06 06:19:01;;;;;;;11.80;2.53;;;7.70;99.90;;;;;;5110581;27;20414;-82
2022/02/06 06:21:30;;;;;;;1.73;1.02;;;8.10;99.90;;;;;;5113563;28;20044;-80
2022/02/06 06:23:56;;;;;;;10.70;3.17;;;8.00;99.90;;;;;;5101373;27;20078;-84
2022/02/06 06:26:24;;;;;;;7.65;2.20;;;7.70;99.90;;;;;;5123241;27;20094;-82
2022/02/06 06:28:50;;;;;;;6.63;2.15;;;7.80;99.90;;;;;;5106115;27;20388;-83
2022/02/06 06:31:16;;;;;;;6.53;1.92;;;7.70;99.90;;;;;;5101941;28;20043;-83
2022/02/06 06:33:42;;;;;;;2.45;1.77;;;7.70;99.90;;;;;;5117622;27;20123;-83
2022/02/06 06:36:08;;;;;;;2.97;1.38;;;8.00;99.90;;;;;;5105486;27;20118;-83
2022/02/06 06:38:34;;;;;;;4.22;1.98;;;7.70;99.90;;;;;;5115068;27;20488;-82
2022/02/06 06:41:01;;;;;;;4.40;1.95;;;7.70;99.90;;;;;;5099518;28;20405;-78
2022/02/06 06:43:27;;;;;;;5.43;2.38;;;7.60;99.90;;;;;;5113713;27;20051;-79
2022/02/06 06:45:53;;;;;;;5.28;2.65;;;7.90;99.90;;;;;;5096011;28;20044;-84
2022/02/06 06:48:19;;;;;;;9.10;2.33;;;7.60;99.90;;;;;;5129910;27;20031;-81
2022/02/06 06:50:44;;;;;;;6.95;2.45;;;7.70;99.90;;;;;;5113042;28;20047;-82
2022/02/06 06:53:12;;;;;;;12.98;2.78;;;7.90;99.90;;;;;;5118559;27;20047;-83
2022/02/06 06:55:40;;;;;;;8.38;2.65;;;8.10;99.90;;;;;;5082533;27;20075;-82
2022/02/06 06:58:12;;;;;;;8.43;2.25;;;7.80;99.90;;;;;;5120595;27;20047;-81
2022/02/06 07:03:12;;;;;;;3.33;1.52;;;7.80;99.90;;;;;;5114851;27;20040;-82
2022/02/06 07:05:38;;;;;;;7.15;1.88;;;8.00;99.90;;;;;;5112677;27;20038;-81
2022/02/06 07:08:05;;;;;;;4.18;1.77;;;8.00;99.90;;;;;;5115112;27;20099;-84
2022/02/06 07:10:30;;;;;;;6.97;1.48;;;7.80;99.90;;;;;;5117007;27;20044;-83
2022/02/06 07:12:56;;;;;;;6.10;1.52;;;8.20;99.90;;;;;;5104337;28;20043;-79
2022/02/06 07:15:22;;;;;;;6.85;1.90;;;7.90;99.90;;;;;;5100737;27;20037;-81
2022/02/06 07:17:48;;;;;;;7.55;1.83;;;7.90;99.90;;;;;;5112935;28;20131;-81
2022/02/06 07:20:14;;;;;;;5.43;1.55;;;8.00;99.90;;;;;;5107438;27;20035;-80
2022/02/06 07:22:40;;;;;;;5.82;1.83;;;7.80;99.90;;;;;;5115574;27;20088;-80
2022/02/06 07:25:07;;;;;;;3.45;1.80;;;7.70;99.90;;;;;;5113467;27;20039;-80
2022/02/06 07:27:36;;;;;;;8.18;2.17;;;7.80;99.90;;;;;;5122994;27;20055;-82
2022/02/06 07:30:06;;;;;;;6.68;2.15;;;7.90;99.90;;;;;;5102871;27;20103;-84
2022/02/06 07:32:35;;;;;;;4.32;1.83;;;7.90;99.90;;;;;;5118894;27;20497;-81
2022/02/06 07:35:01;;;;;;;9.90;1.65;;;8.10;99.90;;;;;;5102595;27;20050;-82
2022/02/06 07:37:26;;;;;;;3.28;1.15;;;7.80;99.90;;;;;;5111301;28;20035;-81
2022/02/06 07:39:52;;;;;;;4.22;2.33;;;7.80;99.90;;;;;;5099113;27;20342;-81
2022/02/06 07:42:18;;;;;;;5.82;2.10;;;7.80;99.90;;;;;;5111954;27;20058;-79
2022/02/06 07:44:47;;;;;;;4.15;1.83;;;7.70;99.90;;;;;;5083921;28;20039;-83
2022/02/06 07:47:19;;;;;;;10.98;2.20;;;7.60;99.90;;;;;;5111198;27;20067;-82
2022/02/06 07:49:48;;;;;;;8.48;2.45;;;8.20;99.90;;;;;;5111791;27;20054;-80
2022/02/06 07:52:17;;;;;;;3.05;1.50;;;8.10;99.90;;;;;;5102745;28;20461;-84
2022/02/06 07:54:43;;;;;;;3.53;1.40;;;7.70;99.90;;;;;;5117056;27;20396;-81
2022/02/06 07:57:09;;;;;;;9.90;1.83;;;7.70;99.90;;;;;;5111902;28;20035;-79
2022/02/06 07:59:35;;;;;;;7.80;2.53;;;7.60;99.90;;;;;;5121654;27;20043;-82
2022/02/06 08:02:02;;;;;;;8.00;2.75;;;7.60;99.90;;;;;;5108313;27;20046;-79
2022/02/06 08:04:28;;;;;;;9.05;2.20;;;7.70;99.90;;;;;;5111807;28;20058;-84
2022/02/06 08:06:55;;;;;;;2.83;1.60;;;7.80;99.90;;;;;;5119028;27;20066;-80
2022/02/06 08:09:33;;;;;;;;;;;7.80;99.90;;;;;;5116793;27;20043;-80
2022/02/06 08:11:58;;;;;;;10.82;1.83;;;7.70;99.90;;;;;;5120130;27;19916;-79
2022/02/06 08:17:19;;;;;;;4.10;1.27;;;7.70;99.90;;;;;;5100286;27;20039;-81
2022/02/06 08:19:46;;;;;;;4.28;1.88;;;7.80;99.90;;;;;;5094459;28;20040;-81
2022/02/06 08:22:12;;;;;;;3.05;1.50;;;8.00;99.90;;;;;;5096439;28;20565;-81
2022/02/06 08:24:39;;;;;;;3.70;2.03;;;7.80;99.90;;;;;;5083208;27;20074;-83
2022/02/06 08:27:04;;;;;;;6.88;1.83;;;8.10;99.90;;;;;;5091685;27;20139;-81
2022/02/06 08:29:30;;;;;;;8.63;2.10;;;8.10;99.90;;;;;;5114798;27;20457;-81
2022/02/06 08:31:56;;;;;;;3.42;1.50;;;7.70;99.90;;;;;;5114169;28;20071;-81
2022/02/06 08:34:21;;;;;;;2.85;1.40;;;7.80;99.90;;;;;;5103046;28;20039;-83
2022/02/06 08:36:47;;;;;;;9.52;1.92;;;7.70;99.90;;;;;;5130383;27;20047;-81
2022/02/06 08:39:13;;;;;;;6.57;1.00;;;7.90;99.90;;;;;;5101496;28;20375;-80
2022/02/06 08:41:38;;;;;;;5.47;1.88;;;7.80;99.90;;;;;;5120753;27;20066;-82
2022/02/06 08:44:05;;;;;;;7.32;1.83;;;7.90;99.90;;;;;;5101477;28;20108;-82
2022/02/06 08:46:31;;;;;;;5.18;1.58;;;7.80;99.90;;;;;;5116796;28;20071;-80
2022/02/06 08:48:56;;;;;;;7.90;2.63;;;8.20;99.90;;;;;;5114192;27;20121;-82
2022/02/06 08:51:23;;;;;;;7.55;2.00;;;7.80;99.90;;;;;;5115072;28;20092;-84
2022/02/06 08:53:48;;;;;;;6.40;2.25;;;7.80;99.90;;;;;;5113122;28;20047;-82
2022/02/06 08:56:15;;;;;;;4.07;1.70;;;7.90;99.90;;;;;;5094845;28;20424;-85
2022/02/06 08:58:41;;;;;;;1.90;1.20;;;7.70;99.90;;;;;;5116572;28;20092;-83
2022/02/06 09:01:07;;;;;;;4.63;1.83;;;7.90;99.90;;;;;;5119579;28;20036;-85
2022/02/06 09:03:32;;;;;;;2.63;1.77;;;7.80;99.90;;;;;;5117742;28;20047;-84
2022/02/06 09:05:58;;;;;;;4.93;1.77;;;7.70;99.90;;;;;;5101473;28;20043;-84
2022/02/06 09:08:24;;;;;;;13.27;2.47;;;7.70;99.90;;;;;;5116177;28;20036;-83
2022/02/06 09:10:50;;;;;;;3.83;1.42;;;7.80;99.90;;;;;;5091180;28;20043;-84
2022/02/06 09:13:18;;;;;;;1.20;0.95;;;7.80;99.90;;;;;;5108103;28;20055;-82
2022/02/06 09:15:43;;;;;;;4.38;0.95;;;7.80;99.90;;;;;;5091930;28;20042;-83
2022/02/06 09:18:09;;;;;;;16.98;2.95;;;7.70;99.90;;;;;;5090526;28;20126;-82
2022/02/06 09:20:35;;;;;;;11.70;1.98;;;7.80;99.90;;;;;;5105093;28;20032;-82
2022/02/06 09:23:01;;;;;;;1.75;1.00;;;7.80;99.90;;;;;;5119103;28;20042;-84
2022/02/06 09:25:27;;;;;;;3.55;1.25;;;8.00;99.90;;;;;;5112541;28;20155;-82
2022/02/06 09:27:52;;;;;;;;;;;7.60;99.90;;;;;;5111974;28;20503;-84
2022/02/06 09:30:25;;;;;;;1.33;1.13;;;7.80;99.90;;;;;;5125585;28;19922;-87
2022/02/06 09:35:24;;;;;;;1.15;0.90;;;7.90;99.90;;;;;;5112849;28;20075;-87
2022/02/06 09:37:50;;;;;;;7.57;1.17;;;7.90;99.90;;;;;;5093870;28;20117;-82
2022/02/06 09:40:17;;;;;;;7.05;1.10;;;7.90;99.90;;;;;;5124255;28;20686;-83
2022/02/06 09:42:49;;;;;;;1.85;0.90;;;7.90;99.90;;;;;;5105686;28;20044;-85
2022/02/06 09:45:15;;;;;;;6.60;1.60;;;7.90;99.90;;;;;;5109735;28;20039;-84
2022/02/06 09:47:46;;;;;;;4.32;1.67;;;7.90;99.90;;;;;;5096041;28;20036;-84
2022/02/06 09:50:12;;;;;;;2.35;0.82;;;8.00;99.90;;;;;;5099483;28;20100;-85
2022/02/06 09:52:39;;;;;;;;;;;7.90;99.90;;;;;;5104061;28;20078;-83
2022/02/06 09:55:15;;;;;;;2.20;1.02;;;7.90;99.90;;;;;;5095692;28;19915;-83
2022/02/06 10:00:19;;;;;;;6.97;1.58;;;7.90;99.90;;;;;;5114615;28;20043;-85
2022/02/06 10:02:47;;;;;;;4.97;1.95;;;7.90;99.90;;;;;;5101878;28;20035;-83
2022/02/06 10:05:17;;;;;;;7.05;1.88;;;8.00;99.90;;;;;;5100168;28;20087;-84
2022/02/06 10:07:58;;;;;;;3.55;1.48;;;7.40;99.90;;;;;;5127225;27;20054;-87
2022/02/06 10:10:25;;;;;;;4.88;1.20;;;7.90;99.90;;;;;;5104177;27;20070;-85
2022/02/06 10:12:55;;;;;;;4.72;1.35;;;8.00;99.90;;;;;;5100765;27;20096;-84
2022/02/06 10:15:22;;;;;;;2.58;1.42;;;8.30;99.90;;;;;;5127729;27;20043;-84
2022/02/06 10:17:49;;;;;;;3.00;1.08;;;7.80;99.90;;;;;;5078051;28;20046;-85
2022/02/06 10:20:23;;;;;;;4.07;1.40;;;7.70;99.90;;;;;;5116766;27;20044;-86
2022/02/06 10:22:56;;;;;;;3.35;1.77;;;7.70;99.90;;;;;;5119490;27;20385;-86
2022/02/06 10:25:22;;;;;;;3.15;2.00;;;7.70;99.90;;;;;;5088949;27;20047;-82
2022/02/06 10:28:00;;;;;;;0.70;0.70;;;7.50;99.90;;;;;;5126855;27;20055;-85
2022/02/06 10:30:37;;;;;;;2.88;1.77;;;7.20;99.90;;;;;;5097224;28;20122;-84
2022/02/06 10:33:18;;;;;;;1.88;1.23;;;6.80;99.90;;;;;;5120990;28;20050;-82
2022/02/06 10:35:53;;;;;;;1.67;1.55;;;7.00;99.90;;;;;;5118336;27;20050;-85
2022/02/06 10:38:28;;;;;;;5.30;1.13;;;6.50;99.90;;;;;;5116960;27;20039;-83
2022/02/06 10:41:16;;;;;;;1.40;1.08;;;6.30;99.90;;;;;;5115397;27;20076;-84
2022/02/06 10:44:01;;;;;;;2.03;1.33;;;6.30;99.90;;;;;;5103401;28;20044;-82
2022/02/06 10:46:29;;;;;;;2.35;1.00;;;6.10;99.90;;;;;;5092954;28;20031;-85
2022/02/06 10:48:57;;;;;;;2.05;1.00;;;6.50;99.90;;;;;;5112707;27;20032;-85
2022/02/06 10:51:45;;;;;;;2.35;1.10;;;6.20;99.90;;;;;;5109721;27;20384;-83
2022/02/06 10:54:31;;;;;;;0.75;0.75;;;6.10;99.90;;;;;;5115798;27;20035;-85
2022/02/06 10:57:11;;;;;;;0.80;0.80;;;6.00;99.90;;;;;;5112416;28;20097;-85
2022/02/06 10:59:43;;;;;;;2.15;1.00;;;5.90;99.90;;;;;;5099781;27;20043;-83
2022/02/06 11:02:29;;;;;;;2.38;1.30;;;6.70;99.90;;;;;;5123381;27;20101;-86
2022/02/06 11:07:50;;;;;;;3.60;1.25;;;5.80;99.90;;;;;;5118808;27;20043;-84
2022/02/06 11:10:15;;;;;;;1.33;0.90;;;6.50;99.90;;;;;;5114351;27;20051;-86
2022/02/06 11:12:56;;;;;;;1.10;1.00;;;5.80;99.90;;;;;;5116785;27;20034;-88
2022/02/06 11:15:33;;;;;;;2.97;1.92;;;6.00;99.90;;;;;;5127865;27;20122;-86
2022/02/06 11:18:04;;;;;;;5.25;1.35;;;5.60;99.90;;;;;;5102902;27;20657;-85
2022/02/06 11:20:30;;;;;;;2.63;0.90;;;5.60;99.90;;;;;;5107110;27;20094;-84
2022/02/06 11:23:02;;;;;;;;;;;6.00;99.90;;;;;;5103397;28;20447;-87
2022/02/06 11:25:34;;;;;;;0.70;0.70;;;5.50;99.90;;;;;;5117221;27;19920;-87
2022/02/06 11:28:04;;;;;;;0.73;0.73;;;5.30;99.90;;;;;;5106579;28;20048;-88
2022/02/06 11:30:30;;;;;;;0.75;0.68;;;5.60;99.90;;;;;;5112479;27;20365;-85
2022/02/06 11:32:56;;;;;;;0.88;0.70;;;5.40;99.90;;;;;;5113305;27;20040;-89
2022/02/06 11:35:25;;;;;;;0.60;0.60;;;5.20;99.90;;;;;;5120557;27;20123;-85
2022/02/06 11:44:00;;;;;;;0.73;0.73;;;5.40;99.90;;;;;;5111574;28;20047;-82
2022/02/06 11:47:03;;;;;;;0.70;0.70;;;5.50;99.90;;;;;;5119746;27;20034;-82
2022/02/06 11:49:29;;;;;;;2.47;1.30;;;5.50;99.90;;;;;;5107568;27;20043;-82
2022/02/06 11:51:57;;;;;;;5.38;1.00;;;5.60;99.90;;;;;;5114376;27;20043;-81
2022/02/06 11:54:29;;;;;;;1.73;1.20;;;5.90;99.90;;;;;;5078038;28;20043;-82
2022/02/06 11:57:19;;;;;;;1.55;0.65;;;5.40;99.90;;;;;;5112139;28;20108;-82
2022/02/06 12:00:06;;;;;;;1.20;1.10;;;5.60;99.90;;;;;;5099334;28;20042;-80
2022/02/06 12:02:33;;;;;;;2.05;0.65;;;5.50;99.90;;;;;;5114517;27;20366;-80
2022/02/06 12:05:26;;;;;;;0.85;0.80;;;6.40;99.90;;;;;;5112767;27;20099;-81
2022/02/06 12:07:52;;;;;;;2.28;1.35;;;5.40;99.90;;;;;;5108954;28;20492;-81
2022/02/06 12:10:34;;;;;;;1.45;1.00;;;5.50;99.90;;;;;;5098599;28;20044;-81
2022/02/06 12:13:27;;;;;;;1.05;0.95;;;5.50;99.90;;;;;;5123407;27;20092;-79
2022/02/06 12:15:58;;;;;;;3.10;1.05;;;5.80;99.90;;;;;;5112723;27;20118;-81
2022/02/06 12:18:41;;;;;;;0.90;0.90;;;5.50;99.90;;;;;;5112311;27;20103;-80
2022/02/06 12:21:20;;;;;;;0.90;0.85;;;6.00;99.90;;;;;;5119194;27;20354;-81
2022/02/06 12:23:55;;;;;;;4.70;1.20;;;5.60;99.90;;;;;;5109285;27;20063;-80
2022/02/06 12:26:42;;;;;;;1.38;1.10;;;5.80;99.90;;;;;;5120990;27;20039;-78
2022/02/06 12:29:12;;;;;;;1.02;0.93;;;5.30;99.90;;;;;;5098108;27;20052;-78
2022/02/06 12:31:53;;;;;;;1.17;0.95;;;5.60;99.90;;;;;;5110963;27;20044;-79
2022/02/06 12:34:41;;;;;;;0.73;0.73;;;5.80;99.90;;;;;;5123260;27;20043;-79
2022/02/06 12:37:22;;;;;;;1.42;1.15;;;5.80;99.90;;;;;;5100293;27;20074;-77
2022/02/06 12:39:48;;;;;;;5.10;1.10;;;5.90;99.90;;;;;;5117637;27;20039;-79
2022/02/06 12:42:17;;;;;;;0.60;0.60;;;6.30;99.90;;;;;;5097436;28;20038;-79
2022/02/06 12:44:44;;;;;;;2.80;1.08;;;6.00;99.90;;;;;;5097422;27;20125;-78
2022/02/06 12:47:13;;;;;;;2.05;1.00;;;6.40;99.90;;;;;;5116134;28;20085;-80
2022/02/06 12:49:41;;;;;;;5.72;1.15;;;6.20;99.90;;;;;;5114531;27;20110;-79
2022/02/06 12:52:07;;;;;;;0.85;0.82;;;6.30;99.90;;;;;;5111319;28;20048;-79
2022/02/06 12:54:33;;;;;;;0.85;0.85;;;6.40;99.90;;;;;;5097512;28;20130;-80
2022/02/06 12:56:59;;;;;;;1.60;1.02;;;6.80;99.90;;;;;;5111235;28;20421;-81
2022/02/06 12:59:29;;;;;;;3.17;1.10;;;6.30;99.90;;;;;;5093526;28;20043;-78
2022/02/06 13:01:55;;;;;;;3.58;1.05;;;6.90;99.90;;;;;;5118710;27;20045;-78
2022/02/06 13:04:28;;;;;;;3.85;1.27;;;6.80;99.90;;;;;;5111176;28;20119;-78
2022/02/06 13:07:00;;;;;;;3.35;1.10;;;6.60;99.90;;;;;;5108578;28;20496;-80
2022/02/06 13:09:31;;;;;;;0.80;0.80;;;6.80;99.90;;;;;;5123203;28;20043;-80
2022/02/06 13:12:08;;;;;;;2.95;1.13;;;6.40;99.90;;;;;;5103849;28;20042;-79
2022/02/06 13:18:12;;;;;;;2.28;1.08;;;7.30;99.90;;;;;;5113911;28;20496;-78
2022/02/06 13:30:59;;;;;;;;;;;7.00;99.90;;;;;;5121055;28;20078;-80
2022/02/06 13:38:40;;;;;;;5.43;1.88;;;7.10;99.90;;;;;;5111661;28;20067;-78
2022/02/06 13:41:18;;;;;;;6.43;1.77;;;7.50;99.90;;;;;;5117604;28;20058;-80
2022/02/06 13:43:45;;;;;;;7.53;1.27;;;7.10;99.90;;;;;;5119275;27;20054;-79
2022/02/06 13:46:31;;;;;;;1.50;1.05;;;7.30;99.90;;;;;;5125508;27;20039;-79
2022/02/06 13:49:36;;;;;;;2.72;1.35;;;7.60;99.90;;;;;;5129264;27;20035;-85
2022/02/06 13:52:07;;;;;;;6.82;1.60;;;7.30;99.90;;;;;;5111956;28;20060;-84
2022/02/06 13:54:48;;;;;;;3.58;1.33;;;7.30;99.90;;;;;;5107341;27;20100;-83
2022/02/06 13:57:15;;;;;;;3.40;1.17;;;7.40;99.90;;;;;;5102226;28;20128;-87
2022/02/06 13:59:45;;;;;;;6.13;1.67;;;7.50;99.90;;;;;;5125214;27;20078;-82
2022/02/06 14:02:37;;;;;;;2.00;1.10;;;8.10;99.90;;;;;;5051729;28;20127;-84
2022/02/06 14:05:09;;;;;;;1.30;0.90;;;6.00;99.90;;;;;;5038758;28;20088;-81
2022/02/06 14:07:35;;;;;;;2.50;1.08;;;7.90;99.90;;;;;;5100132;27;20453;-81
2022/02/06 14:10:09;;;;;;;4.32;1.00;;;5.50;99.90;;;;;;5113401;28;20079;-82
2022/02/06 14:12:54;;;;;;;4.15;1.20;;;7.90;99.90;;;;;;5109731;27;20126;-81
2022/02/06 14:15:28;;;;;;;2.17;1.05;;;8.30;99.90;;;;;;5118919;28;20039;-82
2022/02/06 14:17:57;;;;;;;7.38;1.13;;;7.70;99.90;;;;;;5113312;28;20150;-80
2022/02/06 14:20:28;;;;;;;2.05;1.20;;;7.90;99.90;;;;;;5096181;28;20050;-81
2022/02/06 14:23:02;;;;;;;1.50;1.10;;;8.50;99.90;;;;;;5103658;28;20384;-81
2022/02/06 14:25:42;;;;;;;3.00;1.38;;;8.10;99.90;;;;;;5115072;27;20118;-79
2022/02/06 14:28:31;;;;;;;7.78;1.50;;;8.10;99.90;;;;;;5102399;27;20142;-84
2022/02/06 14:30:57;;;;;;;2.47;1.30;;;8.40;99.90;;;;;;5096252;28;20043;-82
2022/02/06 14:33:24;;;;;;;5.38;2.00;;;8.20;99.90;;;;;;5095708;28;20073;-78
2022/02/06 14:36:01;;;;;;;4.32;1.45;;;7.50;99.90;;;;;;5114586;27;20103;-78
2022/02/06 14:38:44;;;;;;;3.92;1.23;;;7.60;99.90;;;;;;5109216;27;20070;-79
2022/02/06 14:44:12;;;;;;;1.88;0.90;;;7.70;99.90;;;;;;5114279;28;20040;-80
2022/02/06 14:46:49;;;;;;;2.92;1.20;;;7.50;99.90;;;;;;5085261;27;20047;-83
2022/02/06 14:49:27;;;;;;;1.58;1.05;;;7.40;99.90;;;;;;5123744;27;20044;-83
2022/02/06 14:51:53;;;;;;;1.13;1.05;;;9.00;99.90;;;;;;5100541;27;20058;-80
2022/02/06 14:54:27;;;;;;;;;;;7.60;99.90;;;;;;5115910;27;20039;-77
2022/02/06 14:56:55;;;;;;;6.50;1.83;;;7.60;99.90;;;;;;5100999;27;20366;-83
2022/02/06 14:59:21;;;;;;;4.65;1.75;;;7.60;99.90;;;;;;5121009;27;20215;-82
2022/02/06 15:01:50;;;;;;;;;;;7.40;99.90;;;;;;5117753;27;20051;-82
2022/02/06 15:04:25;;;;;;;3.13;1.15;;;;;;;;;;5125499;27;20010;-82
2022/02/06 15:06:57;;;;;;;1.55;1.05;;;5.60;99.90;;;;;;5045763;28;20052;-80
2022/02/06 15:09:23;;;;;;;0.68;0.68;;;4.70;99.90;;;;;;5038736;28;20048;-86
2022/02/06 15:11:57;;;;;;;0.95;0.93;;;4.30;99.90;;;;;;5048011;28;20078;-80
2022/02/06 15:14:25;;;;;;;1.27;1.13;;;5.40;99.90;;;;;;5058104;28;20097;-80
2022/02/06 15:16:56;;;;;;;;;;;3.50;99.90;;;;;;5063692;28;20056;-80
2022/02/06 15:19:32;;;;;;;3.35;1.27;;;3.40;99.90;;;;;;5041386;28;20613;-83
2022/02/06 15:21:59;;;;;;;4.55;1.30;;;3.50;99.90;;;;;;5061722;28;20055;-81
2022/02/06 15:24:26;;;;;;;3.00;1.98;;;3.30;99.90;;;;;;5055043;28;20123;-83
2022/02/06 15:26:52;;;;;;;1.10;0.77;;;3.30;99.90;;;;;;5069218;28;20048;-82
2022/02/06 15:29:19;;;;;;;1.50;1.20;;;3.20;99.90;;;;;;5052665;28;20044;-84
2022/02/06 15:31:51;;;;;;;1.33;0.90;;;3.20;99.90;;;;;;5052864;28;20052;-85
2022/02/06 15:34:17;;;;;;;1.05;0.90;;;3.20;99.90;;;;;;5067834;28;20049;-83
2022/02/06 15:36:49;;;;;;;0.80;0.80;;;3.30;99.90;;;;;;5057956;28;20036;-81
2022/02/06 15:39:36;;;;;;;1.33;0.90;;;2.70;99.90;;;;;;5115118;27;20078;-82
2022/02/06 15:42:08;;;;;;;1.73;1.00;;;3.70;99.90;;;;;;5101236;27;20461;-81
2022/02/06 15:44:34;;;;;;;1.48;1.05;;;3.40;99.90;;;;;;5115398;27;20052;-80
2022/02/06 15:47:08;;;;;;;1.13;1.02;;;3.60;99.90;;;;;;5091190;27;20049;-81
2022/02/06 15:49:34;;;;;;;0.77;0.77;;;3.50;99.90;;;;;;5104197;27;20027;-81
2022/02/06 15:52:14;;;;;;;5.10;1.45;;;3.60;99.90;;;;;;5111222;28;20054;-79
2022/02/06 15:54:40;;;;;;;3.78;1.23;;;3.60;99.90;;;;;;5086129;27;20035;-81
2022/02/06 15:57:06;;;;;;;4.57;1.05;;;3.70;99.90;;;;;;5085911;28;20058;-81